Bethlehem, North Carolina
Current Conditions -  °F | °C
As of 5:41 PM on Sunday 23 Nov 2014 (Local Time) from KHKY Reporting Station
Moderate Rain Moderate Rain  
Wind Chill: 44°   Ceiling: 400
Heat Index: 47°   Visibility: 3mi
Dew Point: 45°   Wind: 7mph
Humidity: 93%   Direction: 30°NNE
Pressure: 29.85"   Gusts: NA
Location:  35.7628°N, 81.3219°W
Report Text: KHKY 232241Z 03006KT 3SM RA BR OVC004 08/07 A2985 RMK AO2 P0019 T00830072
Loading
Personal Weather Stations






























Interactive Weather Map New forecast layout! Learn more

10-Day Weather Forecast

Advertisements
Track Severe Weather on mobile